createdAt,value
2019-01-05T00:02:07.965Z,25.23
2019-01-05T00:04:52.916Z,24.27
2019-01-05T00:07:29.552Z,26.70
2019-01-05T00:10:17.914Z,24.00
2019-01-05T00:13:02.899Z,27.17
2019-01-05T00:15:49.011Z,22.77
2019-01-05T00:18:47.641Z,22.90
2019-01-05T00:21:39.879Z,25.83
2019-01-05T00:24:25.079Z,21.53
2019-01-05T00:27:26.411Z,25.77
2019-01-05T00:30:11.445Z,21.70
2019-01-05T00:33:03.764Z,24.27
2019-01-05T00:36:01.878Z,24.03
2019-01-05T00:38:51.788Z,24.70
2019-01-05T00:41:50.125Z,23.43
2019-01-05T00:44:39.253Z,20.80
2019-01-05T00:47:31.484Z,24.17
2019-01-05T00:50:16.441Z,22.67
2019-01-05T00:53:03.110Z,24.40
2019-01-05T00:56:05.127Z,25.07
2019-01-05T00:58:51.592Z,25.30
2019-01-05T01:01:56.448Z,22.53
2019-01-05T01:04:41.754Z,23.60
2019-01-05T01:07:30.933Z,20.63
2019-01-05T01:10:26.140Z,23.77
2019-01-05T01:13:11.278Z,25.33
2019-01-05T01:15:57.843Z,22.60
2019-01-05T01:18:47.514Z,24.30
2019-01-05T01:21:33.973Z,23.47
2019-01-05T01:24:10.864Z,25.37
2019-01-05T01:26:53.598Z,24.37
2019-01-05T01:29:51.736Z,24.63
2019-01-05T01:32:38.125Z,24.20
2019-01-05T01:35:24.542Z,27.60
2019-01-05T01:38:41.379Z,23.30
2019-01-05T01:41:34.985Z,22.93
2019-01-05T01:44:19.951Z,27.53
2019-01-05T01:47:10.131Z,28.57
2019-01-05T01:49:56.625Z,27.03
2019-01-05T01:52:47.124Z,28.13
2019-01-05T01:55:44.571Z,27.93
2019-01-05T01:58:53.342Z,30.70
2019-01-05T02:01:41.059Z,26.50
2019-01-05T02:04:42.656Z,31.50
2019-01-05T02:07:27.814Z,26.63
2019-01-05T02:10:13.458Z,26.50
2019-01-05T02:13:02.510Z,28.83
2019-01-05T02:16:01.469Z,24.10
2019-01-05T02:19:17.399Z,28.80
2019-01-05T02:22:53.797Z,30.30
2019-01-05T02:26:01.408Z,30.87
2019-01-05T02:29:28.847Z,31.93
2019-01-05T02:32:40.115Z,26.90
2019-01-05T02:36:02.893Z,26.53
2019-01-05T02:39:02.128Z,32.90
2019-01-05T02:42:22.328Z,27.77
2019-01-05T02:46:01.872Z,28.60
2019-01-05T02:49:34.255Z,31.40
2019-01-05T02:52:51.952Z,30.50
2019-01-05T02:56:17.891Z,26.30
2019-01-05T02:59:37.269Z,26.00
2019-01-05T03:03:11.316Z,28.60
2019-01-05T03:06:29.471Z,30.67
2019-01-05T03:09:48.737Z,29.63
2019-01-05T03:12:54.381Z,24.37
2019-01-05T03:16:36.803Z,28.10
2019-01-05T03:19:56.488Z,27.87
2019-01-05T03:23:35.574Z,31.13
2019-01-05T03:26:48.135Z,27.37
2019-01-05T03:30:17.988Z,28.90
2019-01-05T03:33:50.607Z,29.87
2019-01-05T03:37:16.512Z,27.00
2019-01-05T03:40:45.327Z,24.87
2019-01-05T03:44:08.590Z,28.23
2019-01-05T03:47:11.742Z,28.90
2019-01-05T03:50:23.848Z,30.83
2019-01-05T03:54:15.926Z,26.93
2019-01-05T03:57:28.899Z,27.90
2019-01-05T04:00:53.526Z,31.23
2019-01-05T04:04:10.793Z,28.73
2019-01-05T04:07:57.674Z,32.07
2019-01-05T04:11:31.302Z,33.63
2019-01-05T04:15:07.346Z,24.77
2019-01-05T04:18:09.348Z,27.63
2019-01-05T04:21:50.402Z,26.20
2019-01-05T04:25:27.956Z,24.60
2019-01-05T04:28:42.563Z,25.70
2019-01-05T04:32:01.182Z,25.50
2019-01-05T04:35:40.906Z,27.47
2019-01-05T04:38:55.266Z,25.43
2019-01-05T04:42:23.991Z,25.50
2019-01-05T04:45:49.047Z,23.27
2019-01-05T04:49:16.614Z,24.27
2019-01-05T04:52:38.756Z,22.30
2019-01-05T04:55:55.130Z,22.03
2019-01-05T04:59:27.677Z,22.37
2019-01-05T05:02:47.159Z,21.20
2019-01-05T05:05:43.948Z,20.30
2019-01-05T05:09:09.810Z,21.30
2019-01-05T05:12:31.863Z,18.60
2019-01-05T05:16:07.591Z,19.63
2019-01-05T05:19:31.967Z,19.17
2019-01-05T05:22:53.082Z,16.87
2019-01-05T05:26:14.937Z,14.43
2019-01-05T05:29:44.087Z,15.30
2019-01-05T05:33:22.798Z,12.80
2019-01-05T05:36:59.289Z,11.10
2019-01-05T05:40:15.392Z,11.23
2019-01-05T05:44:15.849Z,11.33
2019-01-05T05:48:05.106Z,9.53
2019-01-05T05:51:19.414Z,10.17
2019-01-05T05:54:39.478Z,9.93
2019-01-05T05:58:06.267Z,6.10
2019-01-05T06:01:46.120Z,9.47
2019-01-05T06:05:06.805Z,8.23
2019-01-05T06:08:36.857Z,7.17
2019-01-05T06:12:22.366Z,7.57
2019-01-05T06:16:09.765Z,6.10
2019-01-05T06:19:51.902Z,5.43
2019-01-05T06:23:05.218Z,6.03
2019-01-05T06:26:28.084Z,6.87
2019-01-05T06:30:13.651Z,5.17
2019-01-05T06:33:31.032Z,6.00
2019-01-05T06:36:58.879Z,6.33
2019-01-05T06:40:27.978Z,5.97
2019-01-05T06:43:32.402Z,5.00
2019-01-05T06:46:55.849Z,4.97
2019-01-05T06:50:17.165Z,7.33
2019-01-05T06:53:50.803Z,5.10
2019-01-05T06:57:28.821Z,5.20
2019-01-05T07:01:04.777Z,6.73
2019-01-05T07:04:27.643Z,5.90
2019-01-05T07:08:10.055Z,4.50
2019-01-05T07:11:52.854Z,6.80
2019-01-05T07:15:44.530Z,4.83
2019-01-05T07:19:22.205Z,5.33
2019-01-05T07:22:36.804Z,5.20
2019-01-05T07:26:22.511Z,5.90
2019-01-05T07:29:49.564Z,5.70
2019-01-05T07:33:17.695Z,7.37
2019-01-05T07:36:55.928Z,5.77
2019-01-05T07:40:16.377Z,8.33
2019-01-05T07:44:02.484Z,5.43
2019-01-05T07:47:46.249Z,6.10
2019-01-05T07:51:08.306Z,5.80
2019-01-05T07:54:30.491Z,5.77
2019-01-05T07:57:50.633Z,5.20
2019-01-05T08:01:14.900Z,6.33
2019-01-05T08:04:40.132Z,6.53
2019-01-05T08:08:19.943Z,6.10
2019-01-05T08:11:40.382Z,5.53
2019-01-05T08:15:15.016Z,5.63
2019-01-05T08:18:45.595Z,6.20
2019-01-05T08:22:27.389Z,5.33
2019-01-05T08:26:04.845Z,8.20
2019-01-05T08:29:38.644Z,5.30
2019-01-05T08:33:03.553Z,6.47
2019-01-05T08:36:16.508Z,7.77
2019-01-05T08:40:05.221Z,7.10
2019-01-05T08:43:26.165Z,6.50
2019-01-05T08:46:55.491Z,6.03
2019-01-05T08:50:05.332Z,6.57
2019-01-05T08:53:44.674Z,6.87
2019-01-05T08:57:28.513Z,6.87
2019-01-05T09:01:16.978Z,8.10
2019-01-05T09:04:45.799Z,8.67
2019-01-05T09:08:22.680Z,7.57
2019-01-05T09:11:57.403Z,7.80
2019-01-05T09:15:21.583Z,6.87
2019-01-05T09:18:43.451Z,8.00
2019-01-05T09:22:10.216Z,11.30
2019-01-05T09:25:18.581Z,8.40
2019-01-05T09:28:18.885Z,9.90
2019-01-05T09:31:55.560Z,9.03
2019-01-05T09:35:27.905Z,9.77
2019-01-05T09:39:10.374Z,11.90
2019-01-05T09:42:36.077Z,9.67
2019-01-05T09:46:27.843Z,13.10
2019-01-05T09:49:57.723Z,10.20
2019-01-05T09:53:30.168Z,11.23
2019-01-05T09:57:25.479Z,14.80
2019-01-05T10:00:49.694Z,8.80
2019-01-05T10:04:33.132Z,9.97
2019-01-05T10:07:52.480Z,10.93
2019-01-05T10:11:23.759Z,12.00
2019-01-05T10:14:59.687Z,10.90
2019-01-05T10:18:21.894Z,12.70
2019-01-05T10:21:59.771Z,12.00
2019-01-05T10:25:27.865Z,14.93
2019-01-05T10:29:05.719Z,10.50
2019-01-05T10:32:26.784Z,10.57
2019-01-05T10:35:49.901Z,12.57
2019-01-05T10:39:17.520Z,11.60
2019-01-05T10:42:59.736Z,12.50
2019-01-05T10:46:32.962Z,10.50
2019-01-05T10:50:16.510Z,12.60
2019-01-05T10:53:33.564Z,10.70
2019-01-05T10:57:02.423Z,12.07
2019-01-05T11:00:38.128Z,13.20
2019-01-05T11:04:15.796Z,14.43
2019-01-05T11:07:34.974Z,13.87
2019-01-05T11:10:49.117Z,13.47
2019-01-05T11:14:22.244Z,13.30
2019-01-05T11:17:41.693Z,11.37
2019-01-05T11:21:12.793Z,12.20
2019-01-05T11:24:51.299Z,9.57
2019-01-05T11:28:01.557Z,9.60
2019-01-05T11:31:53.378Z,12.03
2019-01-05T11:35:36.085Z,10.93
2019-01-05T11:38:56.839Z,10.47
2019-01-05T11:42:07.879Z,10.27
2019-01-05T11:45:23.338Z,24.40
2019-01-05T11:49:01.994Z,11.00
2019-01-05T11:52:44.931Z,11.10
2019-01-05T11:56:12.700Z,16.23
2019-01-05T12:00:04.329Z,9.47
2019-01-05T12:03:57.260Z,9.30
2019-01-05T12:07:26.106Z,9.33
2019-01-05T12:10:55.122Z,10.10
2019-01-05T12:14:17.285Z,9.17
2019-01-05T12:17:51.724Z,11.00
2019-01-05T12:21:20.181Z,9.27
2019-01-05T12:24:49.840Z,10.57
2019-01-05T12:28:28.982Z,10.97
2019-01-05T12:31:51.936Z,11.00
2019-01-05T12:35:25.464Z,12.80
2019-01-05T12:39:02.028Z,11.03
2019-01-05T12:42:48.650Z,11.63
2019-01-05T12:46:28.511Z,15.20
2019-01-05T12:50:10.827Z,11.10
2019-01-05T12:53:37.921Z,7.77
2019-01-05T12:56:55.591Z,7.83
2019-01-05T13:00:18.727Z,10.70
2019-01-05T13:03:54.962Z,6.80
2019-01-05T13:07:36.253Z,6.17
2019-01-05T13:11:25.730Z,5.90
2019-01-05T13:14:35.985Z,5.40
2019-01-05T13:18:03.681Z,3.90
2019-01-05T13:21:40.569Z,4.30
2019-01-05T13:25:22.359Z,4.27
2019-01-05T13:29:02.961Z,4.30
2019-01-05T13:32:31.242Z,3.23
2019-01-05T13:35:51.791Z,3.70
2019-01-05T13:39:16.397Z,3.30
2019-01-05T13:42:29.441Z,3.23
2019-01-05T13:45:57.824Z,3.27
2019-01-05T13:49:20.815Z,2.73
2019-01-05T13:53:00.425Z,3.03
2019-01-05T13:56:03.088Z,4.53
2019-01-05T13:58:48.936Z,2.73
2019-01-05T14:01:44.397Z,3.13
2019-01-05T14:04:33.557Z,3.37
2019-01-05T14:07:18.581Z,3.20
2019-01-05T14:10:04.782Z,3.30
2019-01-05T14:12:44.323Z,2.37
2019-01-05T14:15:30.741Z,3.30
2019-01-05T14:18:16.796Z,3.37
2019-01-05T14:21:03.426Z,3.27
2019-01-05T14:23:55.379Z,3.43
2019-01-05T14:26:37.334Z,2.60
2019-01-05T14:29:22.218Z,4.43
2019-01-05T14:32:26.763Z,2.67
2019-01-05T14:35:25.066Z,2.73
2019-01-05T14:38:20.400Z,2.67
2019-01-05T14:41:14.525Z,3.10
2019-01-05T14:44:12.753Z,2.90
2019-01-05T14:47:01.924Z,2.60
2019-01-05T14:49:48.774Z,2.43
2019-01-05T14:52:27.847Z,3.10
2019-01-05T14:55:20.024Z,4.30
2019-01-05T14:58:05.304Z,3.70
2019-01-05T15:01:00.990Z,3.90
2019-01-05T15:03:49.951Z,5.30
2019-01-05T15:06:30.824Z,5.20
2019-01-05T15:09:22.998Z,5.90
2019-01-05T15:12:13.664Z,4.80
2019-01-05T15:14:58.910Z,4.90
2019-01-05T15:17:53.348Z,4.57
2019-01-05T15:20:47.693Z,6.30
2019-01-05T15:23:46.123Z,4.63
2019-01-05T15:26:41.345Z,4.23
2019-01-05T15:29:27.726Z,7.97
2019-01-05T15:32:26.567Z,4.07
2019-01-05T15:35:15.687Z,3.60
2019-01-05T15:38:02.045Z,3.90
2019-01-05T15:40:43.864Z,3.60
2019-01-05T15:43:39.256Z,2.80
2019-01-05T15:46:24.610Z,3.67
2019-01-05T15:49:23.056Z,2.90
2019-01-05T15:52:08.230Z,3.47
2019-01-05T15:54:54.648Z,3.63
2019-01-05T15:57:53.136Z,3.60
2019-01-05T16:00:49.208Z,3.80
2019-01-05T16:03:41.822Z,2.40
2019-01-05T16:06:26.814Z,2.40
2019-01-05T16:09:16.474Z,2.70
2019-01-05T16:12:01.457Z,2.03
2019-01-05T16:14:47.978Z,4.10
2019-01-05T16:17:40.208Z,1.93
2019-01-05T16:20:27.933Z,2.33
2019-01-05T16:23:12.939Z,2.20
2019-01-05T16:25:58.499Z,2.80
2019-01-05T16:28:44.970Z,2.40
2019-01-05T16:31:46.706Z,2.57
2019-01-05T16:34:31.477Z,2.53
2019-01-05T16:37:16.825Z,2.40
2019-01-05T16:40:05.650Z,2.67
2019-01-05T16:43:02.421Z,2.50
2019-01-05T16:46:06.824Z,4.13
2019-01-05T16:49:02.140Z,4.53
2019-01-05T16:51:48.568Z,2.27
2019-01-05T16:54:40.793Z,2.13
2019-01-05T16:57:27.181Z,2.30
2019-01-05T17:00:19.347Z,2.23
2019-01-05T17:03:11.598Z,2.50
2019-01-05T17:05:56.763Z,3.10
2019-01-05T17:08:46.025Z,2.30
2019-01-05T17:11:31.496Z,2.10
2019-01-05T17:14:16.977Z,2.77
2019-01-05T17:16:59.439Z,2.30
2019-01-05T17:19:43.224Z,2.87
2019-01-05T17:22:47.936Z,3.47
2019-01-05T17:25:33.922Z,2.40
2019-01-05T17:28:24.959Z,2.40
2019-01-05T17:31:24.647Z,3.13
2019-01-05T17:34:16.789Z,2.30
2019-01-05T17:37:02.069Z,2.60
2019-01-05T17:39:53.569Z,2.80
2019-01-05T17:42:51.954Z,3.10
2019-01-05T17:45:34.258Z,5.17
2019-01-05T17:48:25.337Z,2.83
2019-01-05T17:51:18.032Z,2.93
2019-01-05T17:54:03.118Z,2.53
2019-01-05T17:56:52.610Z,2.50
2019-01-05T17:59:37.768Z,2.17
2019-01-05T18:02:24.379Z,2.67
2019-01-05T18:05:09.589Z,2.37
2019-01-05T18:07:54.588Z,2.80
2019-01-05T18:10:47.370Z,2.47
2019-01-05T18:13:24.461Z,2.70
2019-01-05T18:16:18.092Z,2.27
2019-01-05T18:19:04.646Z,2.50
2019-01-05T18:21:51.119Z,2.73
2019-01-05T18:24:36.213Z,2.90
2019-01-05T18:27:24.571Z,4.10
2019-01-05T18:30:10.990Z,2.73
2019-01-05T18:33:09.352Z,2.50
2019-01-05T18:35:56.648Z,5.93
2019-01-05T18:38:42.632Z,4.27
2019-01-05T18:41:29.005Z,2.37
2019-01-05T18:44:24.965Z,2.67
2019-01-05T18:47:25.119Z,3.03
2019-01-05T18:50:10.174Z,2.63
2019-01-05T18:53:06.487Z,3.60
2019-01-05T18:55:51.768Z,2.80
2019-01-05T18:58:47.585Z,2.90
2019-01-05T19:01:32.998Z,3.07
2019-01-05T19:04:21.166Z,3.23
2019-01-05T19:07:06.383Z,2.43
2019-01-05T19:09:59.081Z,3.40
2019-01-05T19:12:51.374Z,2.97
2019-01-05T19:15:43.841Z,3.07
2019-01-05T19:18:32.952Z,2.40
2019-01-05T19:21:25.211Z,3.07
2019-01-05T19:24:11.411Z,2.43
2019-01-05T19:26:59.039Z,3.10
2019-01-05T19:29:43.925Z,2.97
2019-01-05T19:32:35.670Z,3.00
2019-01-05T19:35:22.041Z,2.40
2019-01-05T19:38:11.210Z,2.43
2019-01-05T19:40:56.191Z,2.63
2019-01-05T19:44:00.513Z,2.97
2019-01-05T19:46:45.775Z,3.47
2019-01-05T19:49:44.199Z,2.67
2019-01-05T19:52:49.011Z,3.07
2019-01-05T19:55:34.938Z,3.60
2019-01-05T19:58:19.907Z,3.80
2019-01-05T20:01:04.829Z,6.10
2019-01-05T20:03:59.998Z,3.20
2019-01-05T20:06:41.330Z,4.40
2019-01-05T20:09:27.723Z,5.03
2019-01-05T20:12:13.202Z,3.50
2019-01-05T20:14:56.513Z,3.27
2019-01-05T20:17:43.035Z,2.90
2019-01-05T20:20:23.883Z,3.27
2019-01-05T20:23:08.963Z,3.33
2019-01-05T20:26:02.909Z,8.30
2019-01-05T20:28:47.970Z,3.20
2019-01-05T20:31:34.478Z,3.77
2019-01-05T20:34:20.983Z,4.43
2019-01-05T20:37:12.961Z,4.10
2019-01-05T20:40:02.110Z,3.60
2019-01-05T20:42:51.806Z,4.13
2019-01-05T20:45:39.917Z,3.90
2019-01-05T20:48:24.964Z,3.90
2019-01-05T20:51:10.066Z,3.40
2019-01-05T20:53:56.433Z,3.27
2019-01-05T20:56:41.703Z,2.87
2019-01-05T20:59:43.372Z,2.50
2019-01-05T21:02:30.033Z,2.87
2019-01-05T21:05:17.575Z,3.00
2019-01-05T21:08:03.033Z,3.40
2019-01-05T21:11:00.120Z,3.73
2019-01-05T21:13:46.434Z,3.40
2019-01-05T21:19:44.470Z,2.40
2019-01-05T21:22:29.417Z,2.70
2019-01-05T21:25:15.032Z,1.90
2019-01-05T21:28:10.718Z,2.37
2019-01-05T21:30:57.148Z,2.30
2019-01-05T21:33:46.106Z,2.20
2019-01-05T21:36:26.474Z,2.10
2019-01-05T21:39:30.686Z,2.27
2019-01-05T21:42:15.793Z,1.80
2019-01-05T21:44:56.086Z,2.10
2019-01-05T21:47:48.351Z,2.03
2019-01-05T21:50:33.464Z,2.17
2019-01-05T21:53:19.826Z,2.27
2019-01-05T21:56:16.781Z,2.50
2019-01-05T21:59:15.120Z,2.30
2019-01-05T22:02:04.292Z,2.20
2019-01-05T22:04:50.064Z,3.00
2019-01-05T22:07:36.456Z,2.40
2019-01-05T22:10:29.675Z,2.37
2019-01-05T22:13:15.825Z,2.70
2019-01-05T22:16:00.927Z,3.10
2019-01-05T22:18:53.944Z,3.53
2019-01-05T22:21:52.354Z,2.70
2019-01-05T22:24:42.922Z,2.80
2019-01-05T22:27:28.012Z,3.07
2019-01-05T22:30:26.405Z,2.63
2019-01-05T22:33:07.383Z,2.47
2019-01-05T22:36:04.023Z,2.60
2019-01-05T22:38:50.847Z,2.50
2019-01-05T22:41:42.988Z,2.40
2019-01-05T22:44:28.310Z,2.70
2019-01-05T22:47:13.984Z,2.57
2019-01-05T22:50:06.184Z,2.43
2019-01-05T22:52:51.664Z,2.23
2019-01-05T22:55:35.107Z,2.43
2019-01-05T22:58:21.822Z,2.63
2019-01-05T23:01:14.028Z,2.30
2019-01-05T23:04:12.211Z,2.10
2019-01-05T23:06:57.471Z,2.20
2019-01-05T23:09:44.479Z,2.40
2019-01-05T23:12:49.257Z,2.27
2019-01-05T23:15:34.256Z,2.20
2019-01-05T23:18:19.356Z,2.20
2019-01-05T23:21:16.505Z,2.37
2019-01-05T23:24:05.655Z,2.10
2019-01-05T23:26:58.094Z,2.33
2019-01-05T23:29:49.121Z,2.40
2019-01-05T23:32:33.275Z,2.00
2019-01-05T23:35:28.607Z,2.50
2019-01-05T23:38:14.990Z,2.07
2019-01-05T23:40:59.725Z,2.47
2019-01-05T23:43:45.169Z,2.50
2019-01-05T23:46:30.434Z,2.73
2019-01-05T23:49:25.527Z,2.30
2019-01-05T23:52:14.492Z,2.80
2019-01-05T23:55:11.542Z,4.40
2019-01-05T23:58:03.664Z,2.70
